createdAt,value
2022-12-01T00:01:02.900Z,96.00
2022-12-01T00:03:32.844Z,95.40
2022-12-01T00:06:01.407Z,95.49
2022-12-01T00:08:28.956Z,95.97
2022-12-01T00:11:03.910Z,95.84
2022-12-01T00:13:30.467Z,95.79
2022-12-01T00:15:56.920Z,95.42
2022-12-01T00:18:23.308Z,95.65
2022-12-01T00:20:55.851Z,95.48
2022-12-01T00:23:23.239Z,95.56
2022-12-01T00:25:49.649Z,95.16
2022-12-01T00:28:16.058Z,95.50
2022-12-01T00:30:42.537Z,95.53
2022-12-01T00:33:08.926Z,95.58
2022-12-01T00:35:35.304Z,95.46
2022-12-01T00:38:01.725Z,95.26
2022-12-01T00:40:28.127Z,95.26
2022-12-01T00:42:54.560Z,95.86
2022-12-01T00:45:21.040Z,95.60
2022-12-01T00:47:47.440Z,95.31
2022-12-01T00:50:13.874Z,95.59
2022-12-01T00:52:40.987Z,95.57
2022-12-01T00:55:07.675Z,95.45
2022-12-01T00:57:34.043Z,95.13
2022-12-01T01:00:00.509Z,95.30
2022-12-01T01:02:27.063Z,95.75
2022-12-01T01:04:53.625Z,95.26
2022-12-01T01:07:20.390Z,95.00
2022-12-01T01:09:47.161Z,95.69
2022-12-01T01:12:13.797Z,95.39
2022-12-01T01:14:40.242Z,95.95
2022-12-01T01:17:06.749Z,95.51
2022-12-01T01:19:33.478Z,95.42
2022-12-01T01:21:59.873Z,95.56
2022-12-01T01:24:26.326Z,95.13
2022-12-01T01:26:53.464Z,95.45
2022-12-01T01:29:19.870Z,95.21
2022-12-01T01:31:46.286Z,95.29
2022-12-01T01:34:12.749Z,94.80
2022-12-01T01:36:39.179Z,94.67
2022-12-01T01:39:05.661Z,95.00
2022-12-01T01:41:33.063Z,95.47
2022-12-01T01:44:04.154Z,95.47
2022-12-01T01:46:32.849Z,94.88
2022-12-01T01:49:13.741Z,94.88
2022-12-01T01:51:43.620Z,94.75
2022-12-01T01:54:21.915Z,95.11
2022-12-01T01:56:50.066Z,95.22
2022-12-01T01:59:27.166Z,94.84
2022-12-01T02:02:02.226Z,94.95
2022-12-01T02:04:28.683Z,95.21
2022-12-01T02:06:55.521Z,95.28
2022-12-01T02:09:21.907Z,94.86
2022-12-01T02:12:22.313Z,94.98
2022-12-01T02:15:04.872Z,94.58
2022-12-01T02:17:41.934Z,95.20
2022-12-01T02:20:08.464Z,95.00
2022-12-01T02:22:59.587Z,94.67
2022-12-01T02:25:50.863Z,94.88
2022-12-01T02:28:26.280Z,94.71
2022-12-01T02:31:08.685Z,94.51
2022-12-01T02:33:42.727Z,94.24
2022-12-01T02:36:17.812Z,94.62
2022-12-01T02:38:58.062Z,94.14
2022-12-01T02:41:33.277Z,94.53
2022-12-01T02:44:08.834Z,94.36
2022-12-01T02:47:02.531Z,94.46
2022-12-01T02:49:35.267Z,94.58
2022-12-01T02:52:04.737Z,94.65
2022-12-01T02:54:32.884Z,94.75
2022-12-01T02:56:59.552Z,94.84
2022-12-01T02:59:26.314Z,94.21
2022-12-01T03:02:32.188Z,94.79
2022-12-01T03:05:18.627Z,94.51
2022-12-01T03:08:06.089Z,94.93
2022-12-01T03:11:05.410Z,94.24
2022-12-01T03:14:10.854Z,94.17
2022-12-01T03:16:54.327Z,94.51
2022-12-01T03:19:26.971Z,94.12
2022-12-01T03:22:09.825Z,94.21
2022-12-01T03:24:38.302Z,94.80
2022-12-01T03:27:06.140Z,94.65
2022-12-01T03:29:36.608Z,94.71
2022-12-01T03:32:28.203Z,93.84
2022-12-01T03:34:58.756Z,94.13
2022-12-01T03:37:32.218Z,93.98
2022-12-01T03:40:01.274Z,94.29
2022-12-01T03:42:30.830Z,94.65
2022-12-01T03:45:03.760Z,94.46
2022-12-01T03:47:32.454Z,94.25
2022-12-01T03:50:00.319Z,94.60
2022-12-01T03:52:40.978Z,94.69
2022-12-01T03:55:26.392Z,94.59
2022-12-01T03:58:06.350Z,94.61
2022-12-01T04:00:33.397Z,94.22
2022-12-01T04:03:03.732Z,94.86
2022-12-01T04:05:32.475Z,94.47
2022-12-01T04:07:59.575Z,94.21
2022-12-01T04:10:26.236Z,94.64
2022-12-01T04:12:58.885Z,94.42
2022-12-01T04:15:26.497Z,94.54
2022-12-01T04:17:53.098Z,94.61
2022-12-01T04:20:19.604Z,94.86
2022-12-01T04:22:46.038Z,94.53
2022-12-01T04:25:12.576Z,94.57
2022-12-01T04:27:39.295Z,94.46
2022-12-01T04:30:07.289Z,94.57
2022-12-01T04:32:38.738Z,94.82
2022-12-01T04:35:06.461Z,94.75
2022-12-01T04:37:33.331Z,94.41
2022-12-01T04:39:59.813Z,95.21
2022-12-01T04:42:26.299Z,94.80
2022-12-01T04:44:52.742Z,95.08
2022-12-01T04:47:19.188Z,94.52
2022-12-01T04:49:45.624Z,94.73
2022-12-01T04:52:12.056Z,95.15
2022-12-01T04:54:42.362Z,94.69
2022-12-01T04:57:08.880Z,95.27
2022-12-01T04:59:35.336Z,95.25
2022-12-01T05:02:03.927Z,95.11
2022-12-01T05:04:31.426Z,95.14
2022-12-01T05:06:57.919Z,95.18
2022-12-01T05:09:24.510Z,95.25
2022-12-01T05:11:50.955Z,95.29
2022-12-01T05:14:17.335Z,95.15
2022-12-01T05:16:43.852Z,94.88
2022-12-01T05:19:28.791Z,95.46
2022-12-01T05:21:55.230Z,94.87
2022-12-01T05:24:22.181Z,95.12
2022-12-01T05:26:48.900Z,95.28
2022-12-01T05:29:15.362Z,95.36
2022-12-01T05:31:41.978Z,95.53
2022-12-01T05:34:08.723Z,95.32
2022-12-01T05:36:35.405Z,95.25
2022-12-01T05:39:02.008Z,95.74
2022-12-01T05:41:28.559Z,95.60
2022-12-01T05:43:55.092Z,95.51
2022-12-01T05:46:21.543Z,96.18
2022-12-01T05:48:48.196Z,95.71
2022-12-01T05:51:16.659Z,95.60
2022-12-01T05:53:43.250Z,95.60
2022-12-01T05:56:09.838Z,95.49
2022-12-01T05:58:36.924Z,95.76
2022-12-01T06:01:04.166Z,96.33
2022-12-01T06:03:30.618Z,95.95
2022-12-01T06:05:57.180Z,96.01
2022-12-01T06:08:23.627Z,95.97
2022-12-01T06:10:50.416Z,95.57
2022-12-01T06:13:16.976Z,95.89
2022-12-01T06:15:43.474Z,95.59
2022-12-01T06:18:09.923Z,95.88
2022-12-01T06:20:36.350Z,95.96
2022-12-01T06:23:03.071Z,95.70
2022-12-01T06:25:29.477Z,96.04
2022-12-01T06:27:57.442Z,95.68
2022-12-01T06:30:24.646Z,95.71
2022-12-01T06:32:51.104Z,96.18
2022-12-01T06:35:17.524Z,96.33
2022-12-01T06:37:44.086Z,96.24
2022-12-01T06:40:11.318Z,96.37
2022-12-01T06:42:37.752Z,96.87
2022-12-01T06:45:04.606Z,96.84
2022-12-01T06:47:31.082Z,96.42
2022-12-01T06:49:57.566Z,96.42
2022-12-01T06:52:24.055Z,97.00
2022-12-01T06:54:50.623Z,96.57
2022-12-01T06:57:17.289Z,96.57
2022-12-01T06:59:44.196Z,96.76
2022-12-01T07:02:11.739Z,96.76
2022-12-01T07:04:38.252Z,96.83
2022-12-01T07:07:06.323Z,96.85
2022-12-01T07:09:32.873Z,97.19
2022-12-01T07:11:59.397Z,97.24
2022-12-01T07:14:27.058Z,96.70
2022-12-01T07:16:53.662Z,97.25
2022-12-01T07:19:20.541Z,97.49
2022-12-01T07:21:47.346Z,97.10
2022-12-01T07:24:13.963Z,96.98
2022-12-01T07:26:41.367Z,97.55
2022-12-01T07:29:11.741Z,97.25
2022-12-01T07:31:38.945Z,96.91
2022-12-01T07:34:06.078Z,97.72
2022-12-01T07:36:32.578Z,97.66
2022-12-01T07:38:59.054Z,97.29
2022-12-01T07:41:25.580Z,97.80
2022-12-01T07:43:52.083Z,97.47
2022-12-01T07:46:23.665Z,97.86
2022-12-01T07:48:51.490Z,97.87
2022-12-01T07:51:18.196Z,98.04
2022-12-01T07:53:46.381Z,98.36
2022-12-01T07:56:13.113Z,97.90
2022-12-01T07:58:40.130Z,97.87
2022-12-01T08:01:12.433Z,98.03
2022-12-01T08:03:39.649Z,98.26
2022-12-01T08:06:07.407Z,98.42
2022-12-01T08:08:36.130Z,98.31
2022-12-01T08:11:05.782Z,98.28
2022-12-01T08:13:32.442Z,98.14
2022-12-01T08:15:59.100Z,98.27
2022-12-01T08:18:25.924Z,98.22
2022-12-01T08:20:57.598Z,98.33
2022-12-01T08:23:24.268Z,98.01
2022-12-01T08:25:52.483Z,97.72
2022-12-01T08:28:19.684Z,98.17
2022-12-01T08:30:47.339Z,97.95
2022-12-01T08:33:13.975Z,97.66
2022-12-01T08:35:40.415Z,97.80
2022-12-01T08:38:06.997Z,97.90
2022-12-01T08:40:33.608Z,98.12
2022-12-01T08:43:00.160Z,97.33
2022-12-01T08:45:26.788Z,98.13
2022-12-01T08:47:58.731Z,97.60
2022-12-01T08:50:28.369Z,97.18
2022-12-01T08:52:54.911Z,97.38
2022-12-01T08:55:21.893Z,96.85
2022-12-01T08:57:48.348Z,97.45
2022-12-01T09:00:15.738Z,97.72
2022-12-01T09:02:42.396Z,96.56
2022-12-01T09:05:11.625Z,96.54
2022-12-01T09:07:42.873Z,96.77
2022-12-01T09:10:22.355Z,96.11
2022-12-01T09:13:13.024Z,95.64
2022-12-01T09:15:39.549Z,95.55
2022-12-01T09:18:07.048Z,95.07
2022-12-01T09:20:33.886Z,95.19
2022-12-01T09:23:18.174Z,94.47
2022-12-01T09:25:45.187Z,94.62
2022-12-01T09:28:11.985Z,94.02
2022-12-01T09:30:40.975Z,93.12
2022-12-01T09:33:07.528Z,92.22
2022-12-01T09:35:34.032Z,91.29
2022-12-01T09:38:00.544Z,89.53
2022-12-01T09:40:42.795Z,85.07
2022-12-01T09:43:20.464Z,82.09
2022-12-01T09:45:51.406Z,81.94
2022-12-01T09:48:29.190Z,80.96
2022-12-01T09:50:56.047Z,78.47
2022-12-01T09:53:25.504Z,76.37
2022-12-01T09:55:52.881Z,72.95
2022-12-01T09:58:24.606Z,68.76
2022-12-01T10:00:53.226Z,71.04
2022-12-01T10:03:32.861Z,69.75
2022-12-01T10:06:26.586Z,68.02
2022-12-01T10:09:10.272Z,66.64
2022-12-01T10:11:44.646Z,68.15
2022-12-01T10:14:20.160Z,68.50
2022-12-01T10:17:21.655Z,67.63
2022-12-01T10:20:05.350Z,70.44
2022-12-01T10:22:58.088Z,75.73
2022-12-01T10:25:33.041Z,77.24
2022-12-01T10:28:21.378Z,79.43
2022-12-01T10:30:53.176Z,81.48
2022-12-01T10:33:25.959Z,78.85
2022-12-01T10:35:53.616Z,79.24
2022-12-01T10:38:29.671Z,80.77
2022-12-01T10:40:59.845Z,82.08
2022-12-01T10:43:37.012Z,81.76
2022-12-01T10:46:18.382Z,80.38
2022-12-01T10:49:12.859Z,82.08
2022-12-01T10:51:59.855Z,81.64
2022-12-01T10:54:34.229Z,81.45
2022-12-01T10:57:01.494Z,78.13
2022-12-01T10:59:51.247Z,77.44
2022-12-01T11:02:22.693Z,77.44
2022-12-01T11:05:01.907Z,76.92
2022-12-01T11:07:32.476Z,75.85
2022-12-01T11:10:16.151Z,75.96
2022-12-01T11:12:45.165Z,76.76
2022-12-01T11:15:24.364Z,77.97
2022-12-01T11:18:00.373Z,77.50
2022-12-01T11:23:26.696Z,79.31
2022-12-01T11:26:17.619Z,79.46
2022-12-01T11:28:56.135Z,79.17
2022-12-01T11:31:27.777Z,79.33
2022-12-01T11:33:56.195Z,80.54
2022-12-01T11:36:38.675Z,81.36
2022-12-01T11:39:05.132Z,81.10
2022-12-01T11:41:37.591Z,81.13
2022-12-01T11:44:12.731Z,82.19
2022-12-01T11:46:55.803Z,81.67
2022-12-01T11:49:29.936Z,81.84
2022-12-01T11:51:56.436Z,81.24
2022-12-01T11:54:25.623Z,81.06
2022-12-01T11:57:25.556Z,81.42
2022-12-01T11:59:40.481Z,80.41
2022-12-01T12:02:34.946Z,79.72
2022-12-01T12:05:42.646Z,80.15
2022-12-01T12:08:18.770Z,80.56
2022-12-01T12:10:58.520Z,80.62
2022-12-01T12:13:45.246Z,81.52
2022-12-01T12:16:15.347Z,81.60
2022-12-01T12:18:48.002Z,82.00
2022-12-01T12:21:17.362Z,81.86
2022-12-01T12:23:54.195Z,82.59
2022-12-01T12:26:25.179Z,82.35
2022-12-01T12:29:19.926Z,82.10
2022-12-01T12:32:12.092Z,81.96
2022-12-01T12:35:03.340Z,82.08
2022-12-01T12:37:47.390Z,82.03
2022-12-01T12:40:41.841Z,81.68
2022-12-01T12:43:20.243Z,81.66
2022-12-01T12:46:02.111Z,81.70
2022-12-01T12:49:11.685Z,82.17
2022-12-01T12:51:42.961Z,81.68
2022-12-01T12:54:18.132Z,81.49
2022-12-01T12:56:52.785Z,81.36
2022-12-01T12:59:24.962Z,81.50
2022-12-01T13:02:18.658Z,80.90
2022-12-01T13:05:12.625Z,80.83
2022-12-01T13:07:48.133Z,81.04
2022-12-01T13:10:26.629Z,80.98
2022-12-01T13:12:59.243Z,81.25
2022-12-01T13:15:27.233Z,81.43
2022-12-01T13:17:59.792Z,81.71
2022-12-01T13:20:29.766Z,82.22
2022-12-01T13:22:59.374Z,82.43
2022-12-01T13:25:47.721Z,82.59
2022-12-01T13:28:20.273Z,83.25
2022-12-01T13:31:09.818Z,82.96
2022-12-01T13:33:38.755Z,84.02
2022-12-01T13:36:45.272Z,82.90
2022-12-01T13:39:22.465Z,83.29
2022-12-01T13:41:57.943Z,83.76
2022-12-01T13:44:43.291Z,84.14
2022-12-01T13:47:09.703Z,83.65
2022-12-01T13:49:47.983Z,83.50
2022-12-01T13:52:23.588Z,83.75
2022-12-01T13:55:16.483Z,83.97
2022-12-01T13:58:14.333Z,83.89
2022-12-01T14:00:43.015Z,84.58
2022-12-01T14:03:12.590Z,85.03
2022-12-01T14:05:41.998Z,85.39
2022-12-01T14:08:27.232Z,85.70
2022-12-01T14:11:19.912Z,86.08
2022-12-01T14:13:59.626Z,85.52
2022-12-01T14:16:46.636Z,85.85
2022-12-01T14:19:47.554Z,85.49
2022-12-01T14:22:35.326Z,84.72
2022-12-01T14:25:07.554Z,83.58
2022-12-01T14:27:37.348Z,83.79
2022-12-01T14:30:41.435Z,84.64
2022-12-01T14:33:38.659Z,85.13
2022-12-01T14:36:24.138Z,85.40
2022-12-01T14:38:59.564Z,85.78
2022-12-01T14:41:41.112Z,85.67
2022-12-01T14:44:33.446Z,85.84
2022-12-01T14:47:12.188Z,86.34
2022-12-01T14:50:00.317Z,86.35
2022-12-01T14:52:27.832Z,86.26
2022-12-01T14:54:58.929Z,86.73
2022-12-01T14:57:32.623Z,87.05
2022-12-01T15:00:23.754Z,87.46
2022-12-01T15:02:59.193Z,87.18
2022-12-01T15:05:28.451Z,87.92
2022-12-01T15:08:18.674Z,88.03
2022-12-01T15:10:55.572Z,88.33
2022-12-01T15:13:30.622Z,88.42
2022-12-01T15:16:01.050Z,88.47
2022-12-01T15:18:29.333Z,88.41
2022-12-01T15:21:01.152Z,88.18
2022-12-01T15:23:27.657Z,88.85
2022-12-01T15:25:55.188Z,88.89
2022-12-01T15:28:32.042Z,89.16
2022-12-01T15:31:00.297Z,89.25
2022-12-01T15:33:28.380Z,89.68
2022-12-01T15:35:58.780Z,90.06
2022-12-01T15:38:30.441Z,89.60
2022-12-01T15:41:27.794Z,90.25
2022-12-01T15:43:56.780Z,90.61
2022-12-01T15:46:31.509Z,90.53
2022-12-01T15:49:09.562Z,90.91
2022-12-01T15:51:36.276Z,91.19
2022-12-01T15:54:03.603Z,91.10
2022-12-01T15:56:34.080Z,91.44
2022-12-01T15:59:28.774Z,91.29
2022-12-01T16:01:56.780Z,91.21
2022-12-01T16:04:32.334Z,91.76
2022-12-01T16:07:08.081Z,91.87
2022-12-01T16:09:37.366Z,92.20
2022-12-01T16:12:04.003Z,91.88
2022-12-01T16:14:31.973Z,92.26
2022-12-01T16:16:59.867Z,92.41
2022-12-01T16:19:33.921Z,92.49
2022-12-01T16:22:11.342Z,92.45
2022-12-01T16:24:46.589Z,93.01
2022-12-01T16:27:19.052Z,92.82
2022-12-01T16:29:48.364Z,92.91
2022-12-01T16:32:23.748Z,92.92
2022-12-01T16:34:52.963Z,92.85
2022-12-01T16:37:22.054Z,93.15
2022-12-01T16:39:49.282Z,92.83
2022-12-01T16:42:18.748Z,93.52
2022-12-01T16:44:50.912Z,93.52
2022-12-01T16:47:20.528Z,93.92
2022-12-01T16:49:47.579Z,93.41
2022-12-01T16:55:03.692Z,93.51
2022-12-01T16:57:30.195Z,93.66
2022-12-01T16:59:56.663Z,93.33
2022-12-01T17:02:23.125Z,93.51
2022-12-01T17:04:49.796Z,93.99
2022-12-01T17:07:16.371Z,93.64
2022-12-01T17:09:42.796Z,94.07
2022-12-01T17:12:10.067Z,94.16
2022-12-01T17:14:36.870Z,94.17
2022-12-01T17:17:03.675Z,93.95
2022-12-01T17:19:30.151Z,94.33
2022-12-01T17:21:56.883Z,94.02
2022-12-01T17:24:23.477Z,94.14
2022-12-01T17:26:49.935Z,94.63
2022-12-01T17:29:16.344Z,94.35
2022-12-01T17:31:42.809Z,94.07
2022-12-01T17:34:09.310Z,93.87
2022-12-01T17:36:35.748Z,94.43
2022-12-01T17:39:02.380Z,94.31
2022-12-01T17:41:32.478Z,93.90
2022-12-01T17:44:02.349Z,93.99
2022-12-01T17:46:30.119Z,94.10
2022-12-01T17:48:56.775Z,94.12
2022-12-01T17:51:23.364Z,94.47
2022-12-01T17:53:49.875Z,94.13
2022-12-01T17:56:17.439Z,94.12
2022-12-01T17:58:44.198Z,94.52
2022-12-01T18:01:16.093Z,94.83
2022-12-01T18:03:43.484Z,94.43
2022-12-01T18:06:11.163Z,94.12
2022-12-01T18:08:38.278Z,94.82
2022-12-01T18:11:12.869Z,95.08
2022-12-01T18:13:44.482Z,94.59
2022-12-01T18:16:16.696Z,94.91
2022-12-01T18:18:43.383Z,94.73
2022-12-01T18:21:12.749Z,95.02
2022-12-01T18:23:39.094Z,94.76
2022-12-01T18:26:13.733Z,95.19
2022-12-01T18:28:42.055Z,94.38
2022-12-01T18:31:11.659Z,95.43
2022-12-01T18:33:43.105Z,95.47
2022-12-01T18:36:12.944Z,95.18
2022-12-01T18:38:40.059Z,95.12
2022-12-01T18:41:07.045Z,95.64
2022-12-01T18:43:33.659Z,95.25
2022-12-01T18:46:00.512Z,95.18
2022-12-01T18:48:27.017Z,95.21
2022-12-01T18:50:59.115Z,95.56
2022-12-01T18:53:25.890Z,95.99
2022-12-01T18:55:52.314Z,95.73
2022-12-01T18:58:18.768Z,95.52
2022-12-01T19:00:45.410Z,95.44
2022-12-01T19:03:11.939Z,95.45
2022-12-01T19:05:39.268Z,95.48
2022-12-01T19:08:06.648Z,94.93
2022-12-01T19:10:33.300Z,94.94
2022-12-01T19:12:59.769Z,95.35
2022-12-01T19:15:26.199Z,95.75
2022-12-01T19:17:52.713Z,95.77
2022-12-01T19:20:19.123Z,95.72
2022-12-01T19:22:47.197Z,95.37
2022-12-01T19:25:13.830Z,95.87
2022-12-01T19:27:40.557Z,95.88
2022-12-01T19:30:07.784Z,95.93
2022-12-01T19:32:34.547Z,95.56
2022-12-01T19:35:01.089Z,95.51
2022-12-01T19:37:29.436Z,95.84
2022-12-01T19:39:55.841Z,95.69
2022-12-01T19:42:22.267Z,95.93
2022-12-01T19:44:49.157Z,95.67
2022-12-01T19:47:21.736Z,95.80
2022-12-01T19:49:51.994Z,95.97
2022-12-01T19:52:18.394Z,95.86
2022-12-01T19:54:44.893Z,95.68
2022-12-01T19:57:11.343Z,96.12
2022-12-01T19:59:37.715Z,95.45
2022-12-01T20:02:06.475Z,95.67
2022-12-01T20:04:33.272Z,95.72
2022-12-01T20:06:59.725Z,95.71
2022-12-01T20:09:26.790Z,95.81
2022-12-01T20:11:53.630Z,96.06
2022-12-01T20:14:20.070Z,96.21
2022-12-01T20:16:46.519Z,95.65
2022-12-01T20:19:13.052Z,95.87
2022-12-01T20:22:04.810Z,95.63
2022-12-01T20:24:31.187Z,95.64
2022-12-01T20:26:57.764Z,95.85
2022-12-01T20:29:27.739Z,95.93
2022-12-01T20:31:56.606Z,95.71
2022-12-01T20:34:28.850Z,95.66
2022-12-01T20:36:56.226Z,96.13
2022-12-01T20:39:23.755Z,95.56
2022-12-01T20:41:56.466Z,95.49
2022-12-01T20:44:22.980Z,95.67
2022-12-01T20:46:49.490Z,95.49
2022-12-01T20:49:17.465Z,95.62
2022-12-01T20:51:44.470Z,95.49
2022-12-01T20:54:30.015Z,95.62
2022-12-01T20:56:57.543Z,95.76
2022-12-01T20:59:24.406Z,95.86
2022-12-01T21:01:51.373Z,95.62
2022-12-01T21:04:17.856Z,95.56
2022-12-01T21:06:44.436Z,95.85
2022-12-01T21:09:12.344Z,95.35
2022-12-01T21:12:17.533Z,95.42
2022-12-01T21:15:02.434Z,95.10
2022-12-01T21:17:33.648Z,95.35
2022-12-01T21:20:08.814Z,95.26
2022-12-01T21:22:36.317Z,95.56
2022-12-01T21:25:12.160Z,95.61
2022-12-01T21:27:38.641Z,95.60
2022-12-01T21:30:14.459Z,95.51
2022-12-01T21:32:44.112Z,95.61
2022-12-01T21:35:25.017Z,95.47
2022-12-01T21:37:58.983Z,95.82
2022-12-01T21:40:28.418Z,95.64
2022-12-01T21:42:58.558Z,96.01
2022-12-01T21:45:31.966Z,96.08
2022-12-01T21:48:06.299Z,95.75
2022-12-01T21:50:32.708Z,95.92
2022-12-01T21:52:59.118Z,95.96
2022-12-01T21:55:25.950Z,95.71
2022-12-01T21:57:53.833Z,95.96
2022-12-01T22:00:29.530Z,95.98
2022-12-01T22:03:08.152Z,95.72
2022-12-01T22:05:39.090Z,95.85
2022-12-01T22:08:22.011Z,95.93
2022-12-01T22:10:58.676Z,95.92
2022-12-01T22:13:48.106Z,95.57
2022-12-01T22:16:36.169Z,96.00
2022-12-01T22:19:22.911Z,95.68
2022-12-01T22:22:09.358Z,95.87
2022-12-01T22:24:51.565Z,95.58
2022-12-01T22:27:34.547Z,95.87
2022-12-01T22:30:05.652Z,95.74
2022-12-01T22:32:33.826Z,95.65
2022-12-01T22:35:17.792Z,95.63
2022-12-01T22:37:47.324Z,95.64
2022-12-01T22:40:37.425Z,95.82
2022-12-01T22:43:15.982Z,95.50
2022-12-01T22:45:50.187Z,95.81
2022-12-01T22:48:40.677Z,95.80
2022-12-01T22:51:13.231Z,95.61
2022-12-01T22:53:41.444Z,95.69
2022-12-01T22:56:49.756Z,95.36
2022-12-01T22:59:20.696Z,95.57
2022-12-01T23:01:54.756Z,95.70
2022-12-01T23:04:21.289Z,95.59
2022-12-01T23:06:52.308Z,95.09
2022-12-01T23:09:23.860Z,95.35
2022-12-01T23:11:58.899Z,95.22
2022-12-01T23:14:25.904Z,95.21
2022-12-01T23:16:57.388Z,95.16
2022-12-01T23:19:25.265Z,95.58
2022-12-01T23:21:52.582Z,95.09
2022-12-01T23:24:19.026Z,95.03
2022-12-01T23:26:46.883Z,94.91
2022-12-01T23:29:13.343Z,94.54
2022-12-01T23:31:39.868Z,94.62
2022-12-01T23:34:13.504Z,94.47
2022-12-01T23:36:39.949Z,94.85
2022-12-01T23:39:12.229Z,94.52
2022-12-01T23:41:47.216Z,94.56
2022-12-01T23:44:39.782Z,94.73
2022-12-01T23:47:21.197Z,94.41
2022-12-01T23:49:51.331Z,94.25
2022-12-01T23:52:20.964Z,94.59
2022-12-01T23:54:48.075Z,94.62
2022-12-01T23:57:23.097Z,94.47
2022-12-01T23:59:54.770Z,94.11
